sensor_id;sensor_type;location;lat;lon;timestamp;P1;durP1;ratioP1;P2;durP2;ratioP2
16516;SDS011;8371;52.272;9.746;2023-02-11T00:02:02;24.23;;;18.07;;
16516;SDS011;8371;52.272;9.746;2023-02-11T00:04:29;22.33;;;16.97;;
16516;SDS011;8371;52.272;9.746;2023-02-11T00:06:56;17.87;;;15.93;;
16516;SDS011;8371;52.272;9.746;2023-02-11T00:09:21;21.07;;;17.17;;
16516;SDS011;8371;52.272;9.746;2023-02-11T00:11:48;23.60;;;17.00;;
16516;SDS011;8371;52.272;9.746;2023-02-11T00:14:13;23.13;;;16.83;;
16516;SDS011;8371;52.272;9.746;2023-02-11T00:16:39;22.20;;;18.37;;
16516;SDS011;8371;52.272;9.746;2023-02-11T00:19:05;20.13;;;17.83;;
16516;SDS011;8371;52.272;9.746;2023-02-11T00:21:31;23.03;;;17.47;;
16516;SDS011;8371;52.272;9.746;2023-02-11T00:23:57;22.13;;;17.13;;
16516;SDS011;8371;52.272;9.746;2023-02-11T00:26:27;19.47;;;16.70;;
16516;SDS011;8371;52.272;9.746;2023-02-11T00:28:55;25.27;;;16.97;;
16516;SDS011;8371;52.272;9.746;2023-02-11T00:31:21;25.07;;;17.17;;
16516;SDS011;8371;52.272;9.746;2023-02-11T00:33:48;26.27;;;18.63;;
16516;SDS011;8371;52.272;9.746;2023-02-11T00:36:19;18.03;;;15.83;;
16516;SDS011;8371;52.272;9.746;2023-02-11T00:38:44;24.13;;;17.83;;
16516;SDS011;8371;52.272;9.746;2023-02-11T00:41:10;20.53;;;17.67;;
16516;SDS011;8371;52.272;9.746;2023-02-11T00:43:37;20.80;;;16.80;;
16516;SDS011;8371;52.272;9.746;2023-02-11T00:46:03;22.87;;;17.27;;
16516;SDS011;8371;52.272;9.746;2023-02-11T00:48:29;20.97;;;17.40;;
16516;SDS011;8371;52.272;9.746;2023-02-11T00:50:55;26.60;;;18.57;;
16516;SDS011;8371;52.272;9.746;2023-02-11T00:53:21;24.37;;;18.47;;
16516;SDS011;8371;52.272;9.746;2023-02-11T00:55:47;27.77;;;19.30;;
16516;SDS011;8371;52.272;9.746;2023-02-11T00:58:12;28.53;;;19.80;;
16516;SDS011;8371;52.272;9.746;2023-02-11T01:00:38;23.93;;;18.47;;
16516;SDS011;8371;52.272;9.746;2023-02-11T01:03:04;27.53;;;19.57;;
16516;SDS011;8371;52.272;9.746;2023-02-11T01:05:30;26.23;;;17.60;;
16516;SDS011;8371;52.272;9.746;2023-02-11T01:07:56;22.67;;;17.30;;
16516;SDS011;8371;52.272;9.746;2023-02-11T01:10:22;23.97;;;17.70;;
16516;SDS011;8371;52.272;9.746;2023-02-11T01:12:48;22.20;;;17.23;;
16516;SDS011;8371;52.272;9.746;2023-02-11T01:15:14;20.87;;;17.20;;
16516;SDS011;8371;52.272;9.746;2023-02-11T01:17:41;21.07;;;16.60;;
16516;SDS011;8371;52.272;9.746;2023-02-11T01:20:08;20.47;;;17.10;;
16516;SDS011;8371;52.272;9.746;2023-02-11T01:22:40;20.47;;;16.97;;
16516;SDS011;8371;52.272;9.746;2023-02-11T01:25:06;20.40;;;17.13;;
16516;SDS011;8371;52.272;9.746;2023-02-11T01:27:32;22.00;;;17.53;;
16516;SDS011;8371;52.272;9.746;2023-02-11T01:29:58;24.50;;;17.33;;
16516;SDS011;8371;52.272;9.746;2023-02-11T01:32:24;21.90;;;17.23;;
16516;SDS011;8371;52.272;9.746;2023-02-11T01:34:50;21.37;;;16.43;;
16516;SDS011;8371;52.272;9.746;2023-02-11T01:37:15;20.63;;;17.50;;
16516;SDS011;8371;52.272;9.746;2023-02-11T01:39:41;20.53;;;16.80;;
16516;SDS011;8371;52.272;9.746;2023-02-11T01:42:08;20.23;;;16.37;;
16516;SDS011;8371;52.272;9.746;2023-02-11T01:44:41;20.57;;;16.80;;
16516;SDS011;8371;52.272;9.746;2023-02-11T01:47:06;23.53;;;15.90;;
16516;SDS011;8371;52.272;9.746;2023-02-11T01:49:33;20.70;;;15.83;;
16516;SDS011;8371;52.272;9.746;2023-02-11T01:52:16;17.87;;;16.17;;
16516;SDS011;8371;52.272;9.746;2023-02-11T01:54:54;19.20;;;15.67;;
16516;SDS011;8371;52.272;9.746;2023-02-11T01:57:42;27.87;;;18.43;;
16516;SDS011;8371;52.272;9.746;2023-02-11T02:00:12;18.97;;;17.00;;
16516;SDS011;8371;52.272;9.746;2023-02-11T02:02:49;24.70;;;17.70;;
16516;SDS011;8371;52.272;9.746;2023-02-11T02:05:42;26.90;;;19.33;;
16516;SDS011;8371;52.272;9.746;2023-02-11T02:08:22;23.73;;;18.03;;
16516;SDS011;8371;52.272;9.746;2023-02-11T02:10:50;24.07;;;17.43;;
16516;SDS011;8371;52.272;9.746;2023-02-11T02:13:19;19.40;;;16.27;;
16516;SDS011;8371;52.272;9.746;2023-02-11T02:15:49;25.20;;;18.40;;
16516;SDS011;8371;52.272;9.746;2023-02-11T02:18:39;20.80;;;16.83;;
16516;SDS011;8371;52.272;9.746;2023-02-11T02:21:43;22.87;;;16.70;;
16516;SDS011;8371;52.272;9.746;2023-02-11T02:24:20;27.23;;;18.27;;
16516;SDS011;8371;52.272;9.746;2023-02-11T02:32:24;25.90;;;18.07;;
16516;SDS011;8371;52.272;9.746;2023-02-11T02:38:24;22.67;;;16.50;;
16516;SDS011;8371;52.272;9.746;2023-02-11T02:40:27;22.23;;;16.57;;
16516;SDS011;8371;52.272;9.746;2023-02-11T02:42:54;21.83;;;17.47;;
16516;SDS011;8371;52.272;9.746;2023-02-11T02:45:20;19.77;;;16.83;;
16516;SDS011;8371;52.272;9.746;2023-02-11T02:47:46;18.07;;;16.00;;
16516;SDS011;8371;52.272;9.746;2023-02-11T02:50:12;20.87;;;17.20;;
16516;SDS011;8371;52.272;9.746;2023-02-11T02:52:45;22.93;;;17.13;;
16516;SDS011;8371;52.272;9.746;2023-02-11T02:58:09;21.20;;;15.90;;
16516;SDS011;8371;52.272;9.746;2023-02-11T03:00:46;23.90;;;16.70;;
16516;SDS011;8371;52.272;9.746;2023-02-11T03:06:24;18.93;;;15.53;;
16516;SDS011;8371;52.272;9.746;2023-02-11T03:09:06;20.77;;;15.77;;
16516;SDS011;8371;52.272;9.746;2023-02-11T03:11:36;23.40;;;15.47;;
16516;SDS011;8371;52.272;9.746;2023-02-11T03:14:02;21.57;;;16.17;;
16516;SDS011;8371;52.272;9.746;2023-02-11T03:16:30;21.00;;;16.27;;
16516;SDS011;8371;52.272;9.746;2023-02-11T03:19:03;18.50;;;15.80;;
16516;SDS011;8371;52.272;9.746;2023-02-11T03:21:34;18.93;;;15.20;;
16516;SDS011;8371;52.272;9.746;2023-02-11T03:24:05;21.00;;;15.20;;
16516;SDS011;8371;52.272;9.746;2023-02-11T03:26:34;26.00;;;15.73;;
16516;SDS011;8371;52.272;9.746;2023-02-11T03:29:05;16.37;;;14.60;;
16516;SDS011;8371;52.272;9.746;2023-02-11T03:31:59;14.47;;;13.13;;
16516;SDS011;8371;52.272;9.746;2023-02-11T03:34:39;15.07;;;13.43;;
16516;SDS011;8371;52.272;9.746;2023-02-11T03:37:23;15.10;;;13.20;;
16516;SDS011;8371;52.272;9.746;2023-02-11T03:39:51;16.80;;;13.43;;
16516;SDS011;8371;52.272;9.746;2023-02-11T03:42:22;16.13;;;14.37;;
16516;SDS011;8371;52.272;9.746;2023-02-11T03:44:52;15.47;;;13.77;;
16516;SDS011;8371;52.272;9.746;2023-02-11T03:47:22;14.93;;;13.53;;
16516;SDS011;8371;52.272;9.746;2023-02-11T03:49:50;15.67;;;13.07;;
16516;SDS011;8371;52.272;9.746;2023-02-11T03:52:19;14.10;;;12.60;;
16516;SDS011;8371;52.272;9.746;2023-02-11T03:54:48;15.43;;;13.43;;
16516;SDS011;8371;52.272;9.746;2023-02-11T03:57:16;16.87;;;14.93;;
16516;SDS011;8371;52.272;9.746;2023-02-11T03:59:49;15.63;;;13.20;;
16516;SDS011;8371;52.272;9.746;2023-02-11T04:02:16;13.80;;;12.37;;
16516;SDS011;8371;52.272;9.746;2023-02-11T04:04:42;15.60;;;13.13;;
16516;SDS011;8371;52.272;9.746;2023-02-11T04:07:10;13.93;;;12.63;;
16516;SDS011;8371;52.272;9.746;2023-02-11T04:09:36;17.03;;;13.37;;
16516;SDS011;8371;52.272;9.746;2023-02-11T04:12:02;15.27;;;13.70;;
16516;SDS011;8371;52.272;9.746;2023-02-11T04:14:28;15.07;;;13.57;;
16516;SDS011;8371;52.272;9.746;2023-02-11T04:16:53;15.47;;;13.53;;
16516;SDS011;8371;52.272;9.746;2023-02-11T04:19:19;15.20;;;13.60;;
16516;SDS011;8371;52.272;9.746;2023-02-11T04:21:45;17.27;;;14.97;;
16516;SDS011;8371;52.272;9.746;2023-02-11T04:24:11;16.73;;;13.20;;
16516;SDS011;8371;52.272;9.746;2023-02-11T04:26:37;16.13;;;13.37;;
16516;SDS011;8371;52.272;9.746;2023-02-11T04:29:03;13.33;;;12.23;;
16516;SDS011;8371;52.272;9.746;2023-02-11T04:31:28;14.53;;;12.53;;
16516;SDS011;8371;52.272;9.746;2023-02-11T04:33:54;13.47;;;12.27;;
16516;SDS011;8371;52.272;9.746;2023-02-11T04:36:21;12.40;;;11.30;;
16516;SDS011;8371;52.272;9.746;2023-02-11T04:38:46;11.77;;;10.70;;
16516;SDS011;8371;52.272;9.746;2023-02-11T04:41:12;13.10;;;11.80;;
16516;SDS011;8371;52.272;9.746;2023-02-11T04:43:38;12.63;;;11.43;;
16516;SDS011;8371;52.272;9.746;2023-02-11T04:46:03;11.10;;;10.20;;
16516;SDS011;8371;52.272;9.746;2023-02-11T04:48:29;11.20;;;10.10;;
16516;SDS011;8371;52.272;9.746;2023-02-11T04:50:55;10.90;;;10.17;;
16516;SDS011;8371;52.272;9.746;2023-02-11T04:53:21;10.40;;;9.50;;
16516;SDS011;8371;52.272;9.746;2023-02-11T04:55:47;10.60;;;9.87;;
16516;SDS011;8371;52.272;9.746;2023-02-11T04:58:15;11.73;;;10.90;;
16516;SDS011;8371;52.272;9.746;2023-02-11T05:00:41;9.83;;;9.20;;
16516;SDS011;8371;52.272;9.746;2023-02-11T05:03:06;10.37;;;9.67;;
16516;SDS011;8371;52.272;9.746;2023-02-11T05:05:32;9.57;;;8.97;;
16516;SDS011;8371;52.272;9.746;2023-02-11T05:07:58;8.83;;;8.37;;
16516;SDS011;8371;52.272;9.746;2023-02-11T05:10:23;8.97;;;8.37;;
16516;SDS011;8371;52.272;9.746;2023-02-11T05:12:49;8.63;;;8.13;;
16516;SDS011;8371;52.272;9.746;2023-02-11T05:15:15;7.87;;;7.47;;
16516;SDS011;8371;52.272;9.746;2023-02-11T05:17:40;10.40;;;9.70;;
16516;SDS011;8371;52.272;9.746;2023-02-11T05:20:06;8.60;;;8.10;;
16516;SDS011;8371;52.272;9.746;2023-02-11T05:22:32;8.90;;;8.40;;
16516;SDS011;8371;52.272;9.746;2023-02-11T05:24:58;9.67;;;9.07;;
16516;SDS011;8371;52.272;9.746;2023-02-11T05:27:24;9.27;;;8.77;;
16516;SDS011;8371;52.272;9.746;2023-02-11T05:29:49;9.27;;;8.77;;
16516;SDS011;8371;52.272;9.746;2023-02-11T05:32:15;9.27;;;8.67;;
16516;SDS011;8371;52.272;9.746;2023-02-11T05:34:41;9.50;;;8.83;;
16516;SDS011;8371;52.272;9.746;2023-02-11T05:37:06;9.20;;;8.50;;
16516;SDS011;8371;52.272;9.746;2023-02-11T05:39:32;11.07;;;10.17;;
16516;SDS011;8371;52.272;9.746;2023-02-11T05:41:58;10.60;;;9.90;;
16516;SDS011;8371;52.272;9.746;2023-02-11T05:44:23;10.80;;;9.90;;
16516;SDS011;8371;52.272;9.746;2023-02-11T05:46:49;10.30;;;9.70;;
16516;SDS011;8371;52.272;9.746;2023-02-11T05:49:15;11.90;;;10.70;;
16516;SDS011;8371;52.272;9.746;2023-02-11T05:51:42;11.30;;;10.50;;
16516;SDS011;8371;52.272;9.746;2023-02-11T05:54:07;11.47;;;10.57;;
16516;SDS011;8371;52.272;9.746;2023-02-11T05:56:33;10.27;;;9.60;;
16516;SDS011;8371;52.272;9.746;2023-02-11T05:58:59;11.70;;;10.80;;
16516;SDS011;8371;52.272;9.746;2023-02-11T06:01:24;10.97;;;10.03;;
16516;SDS011;8371;52.272;9.746;2023-02-11T06:03:51;12.87;;;10.60;;
16516;SDS011;8371;52.272;9.746;2023-02-11T06:06:16;12.47;;;11.03;;
16516;SDS011;8371;52.272;9.746;2023-02-11T06:08:42;10.33;;;9.57;;
16516;SDS011;8371;52.272;9.746;2023-02-11T06:11:08;11.93;;;11.03;;
16516;SDS011;8371;52.272;9.746;2023-02-11T06:13:34;11.77;;;10.77;;
16516;SDS011;8371;52.272;9.746;2023-02-11T06:16:00;11.10;;;10.23;;
16516;SDS011;8371;52.272;9.746;2023-02-11T06:18:27;12.47;;;11.17;;
16516;SDS011;8371;52.272;9.746;2023-02-11T06:20:54;11.37;;;10.47;;
16516;SDS011;8371;52.272;9.746;2023-02-11T06:23:20;10.73;;;9.83;;
16516;SDS011;8371;52.272;9.746;2023-02-11T06:25:46;10.93;;;10.00;;
16516;SDS011;8371;52.272;9.746;2023-02-11T06:28:12;11.57;;;10.47;;
16516;SDS011;8371;52.272;9.746;2023-02-11T06:30:37;12.10;;;10.90;;
16516;SDS011;8371;52.272;9.746;2023-02-11T06:33:03;12.90;;;11.50;;
16516;SDS011;8371;52.272;9.746;2023-02-11T06:35:29;11.00;;;10.10;;
16516;SDS011;8371;52.272;9.746;2023-02-11T06:37:57;12.07;;;10.87;;
16516;SDS011;8371;52.272;9.746;2023-02-11T06:40:23;11.97;;;10.87;;
16516;SDS011;8371;52.272;9.746;2023-02-11T06:42:49;11.50;;;10.57;;
16516;SDS011;8371;52.272;9.746;2023-02-11T06:45:15;12.07;;;10.80;;
16516;SDS011;8371;52.272;9.746;2023-02-11T06:47:40;12.07;;;10.80;;
16516;SDS011;8371;52.272;9.746;2023-02-11T06:50:07;14.70;;;10.37;;
16516;SDS011;8371;52.272;9.746;2023-02-11T06:52:35;11.83;;;10.83;;
16516;SDS011;8371;52.272;9.746;2023-02-11T06:55:00;13.33;;;11.87;;
16516;SDS011;8371;52.272;9.746;2023-02-11T06:57:26;12.30;;;11.00;;
16516;SDS011;8371;52.272;9.746;2023-02-11T06:59:52;12.27;;;10.70;;
16516;SDS011;8371;52.272;9.746;2023-02-11T07:02:18;12.20;;;11.20;;
16516;SDS011;8371;52.272;9.746;2023-02-11T07:04:43;12.90;;;11.60;;
16516;SDS011;8371;52.272;9.746;2023-02-11T07:07:09;12.13;;;10.93;;
16516;SDS011;8371;52.272;9.746;2023-02-11T07:09:35;12.23;;;11.17;;
16516;SDS011;8371;52.272;9.746;2023-02-11T07:12:00;10.73;;;9.67;;
16516;SDS011;8371;52.272;9.746;2023-02-11T07:14:26;12.50;;;11.30;;
16516;SDS011;8371;52.272;9.746;2023-02-11T07:16:52;12.77;;;11.57;;
16516;SDS011;8371;52.272;9.746;2023-02-11T07:19:17;11.93;;;10.77;;
16516;SDS011;8371;52.272;9.746;2023-02-11T07:21:43;11.97;;;10.87;;
16516;SDS011;8371;52.272;9.746;2023-02-11T07:24:09;14.43;;;11.73;;
16516;SDS011;8371;52.272;9.746;2023-02-11T07:26:35;11.80;;;10.63;;
16516;SDS011;8371;52.272;9.746;2023-02-11T07:29:01;13.27;;;11.87;;
16516;SDS011;8371;52.272;9.746;2023-02-11T07:31:28;13.63;;;11.40;;
16516;SDS011;8371;52.272;9.746;2023-02-11T07:33:55;12.17;;;10.97;;
16516;SDS011;8371;52.272;9.746;2023-02-11T07:36:24;10.80;;;10.07;;
16516;SDS011;8371;52.272;9.746;2023-02-11T07:38:51;11.83;;;10.80;;
16516;SDS011;8371;52.272;9.746;2023-02-11T07:41:18;12.47;;;11.23;;
16516;SDS011;8371;52.272;9.746;2023-02-11T07:43:46;11.83;;;10.70;;
16516;SDS011;8371;52.272;9.746;2023-02-11T07:46:13;12.17;;;11.00;;
16516;SDS011;8371;52.272;9.746;2023-02-11T07:48:41;11.93;;;10.73;;
16516;SDS011;8371;52.272;9.746;2023-02-11T07:51:14;11.57;;;10.57;;
16516;SDS011;8371;52.272;9.746;2023-02-11T07:53:45;12.60;;;11.67;;
16516;SDS011;8371;52.272;9.746;2023-02-11T07:56:12;13.80;;;12.47;;
16516;SDS011;8371;52.272;9.746;2023-02-11T07:58:39;13.47;;;12.20;;
16516;SDS011;8371;52.272;9.746;2023-02-11T08:01:08;12.97;;;11.53;;
16516;SDS011;8371;52.272;9.746;2023-02-11T08:03:36;12.10;;;11.00;;
16516;SDS011;8371;52.272;9.746;2023-02-11T08:06:09;11.70;;;10.70;;
16516;SDS011;8371;52.272;9.746;2023-02-11T08:08:32;13.23;;;11.87;;
16516;SDS011;8371;52.272;9.746;2023-02-11T08:11:04;11.33;;;10.37;;
16516;SDS011;8371;52.272;9.746;2023-02-11T08:13:33;11.60;;;10.47;;
16516;SDS011;8371;52.272;9.746;2023-02-11T08:16:00;10.53;;;9.77;;
16516;SDS011;8371;52.272;9.746;2023-02-11T08:18:25;11.40;;;10.20;;
16516;SDS011;8371;52.272;9.746;2023-02-11T08:20:51;12.33;;;11.23;;
16516;SDS011;8371;52.272;9.746;2023-02-11T08:23:17;10.50;;;9.53;;
16516;SDS011;8371;52.272;9.746;2023-02-11T08:25:42;11.23;;;10.27;;
16516;SDS011;8371;52.272;9.746;2023-02-11T08:28:08;12.03;;;10.33;;
16516;SDS011;8371;52.272;9.746;2023-02-11T08:30:34;10.83;;;9.83;;
16516;SDS011;8371;52.272;9.746;2023-02-11T08:33:00;11.60;;;10.43;;
16516;SDS011;8371;52.272;9.746;2023-02-11T08:35:26;11.67;;;10.83;;
16516;SDS011;8371;52.272;9.746;2023-02-11T08:37:51;13.43;;;10.33;;
16516;SDS011;8371;52.272;9.746;2023-02-11T08:40:18;11.17;;;10.33;;
16516;SDS011;8371;52.272;9.746;2023-02-11T08:42:44;11.83;;;10.73;;
16516;SDS011;8371;52.272;9.746;2023-02-11T08:45:10;11.60;;;10.60;;
16516;SDS011;8371;52.272;9.746;2023-02-11T08:47:37;10.83;;;10.00;;
16516;SDS011;8371;52.272;9.746;2023-02-11T08:50:03;11.23;;;10.33;;
16516;SDS011;8371;52.272;9.746;2023-02-11T08:52:30;11.00;;;9.80;;
16516;SDS011;8371;52.272;9.746;2023-02-11T08:54:55;10.50;;;9.57;;
16516;SDS011;8371;52.272;9.746;2023-02-11T08:57:21;12.20;;;10.30;;
16516;SDS011;8371;52.272;9.746;2023-02-11T08:59:47;11.97;;;10.87;;
16516;SDS011;8371;52.272;9.746;2023-02-11T09:02:13;11.27;;;10.43;;
16516;SDS011;8371;52.272;9.746;2023-02-11T09:04:39;11.13;;;9.90;;
16516;SDS011;8371;52.272;9.746;2023-02-11T09:07:05;10.00;;;9.27;;
16516;SDS011;8371;52.272;9.746;2023-02-11T09:09:31;10.33;;;9.63;;
16516;SDS011;8371;52.272;9.746;2023-02-11T09:11:57;10.20;;;9.23;;
16516;SDS011;8371;52.272;9.746;2023-02-11T09:14:25;9.60;;;8.90;;
16516;SDS011;8371;52.272;9.746;2023-02-11T09:16:51;10.53;;;9.53;;
16516;SDS011;8371;52.272;9.746;2023-02-11T09:19:17;10.40;;;9.40;;
16516;SDS011;8371;52.272;9.746;2023-02-11T09:21:43;10.73;;;9.80;;
16516;SDS011;8371;52.272;9.746;2023-02-11T09:24:10;9.70;;;8.87;;
16516;SDS011;8371;52.272;9.746;2023-02-11T09:26:36;10.73;;;9.93;;
16516;SDS011;8371;52.272;9.746;2023-02-11T09:29:03;11.10;;;10.00;;
16516;SDS011;8371;52.272;9.746;2023-02-11T09:31:30;9.97;;;9.07;;
16516;SDS011;8371;52.272;9.746;2023-02-11T09:33:58;9.40;;;8.57;;
16516;SDS011;8371;52.272;9.746;2023-02-11T09:36:27;9.97;;;9.17;;
16516;SDS011;8371;52.272;9.746;2023-02-11T09:38:55;10.23;;;9.50;;
16516;SDS011;8371;52.272;9.746;2023-02-11T09:43:59;10.27;;;9.00;;
16516;SDS011;8371;52.272;9.746;2023-02-11T09:46:30;9.63;;;8.80;;
16516;SDS011;8371;52.272;9.746;2023-02-11T09:48:57;9.30;;;8.60;;
16516;SDS011;8371;52.272;9.746;2023-02-11T09:51:36;9.33;;;8.70;;
16516;SDS011;8371;52.272;9.746;2023-02-11T09:54:04;9.37;;;8.70;;
16516;SDS011;8371;52.272;9.746;2023-02-11T09:56:32;11.57;;;10.57;;
16516;SDS011;8371;52.272;9.746;2023-02-11T09:58:57;11.10;;;10.07;;
16516;SDS011;8371;52.272;9.746;2023-02-11T10:01:34;9.70;;;9.03;;
16516;SDS011;8371;52.272;9.746;2023-02-11T10:04:13;10.13;;;9.33;;
16516;SDS011;8371;52.272;9.746;2023-02-11T10:06:55;12.77;;;9.87;;
16516;SDS011;8371;52.272;9.746;2023-02-11T10:09:39;10.10;;;9.27;;
16516;SDS011;8371;52.272;9.746;2023-02-11T10:12:17;10.13;;;9.33;;
16516;SDS011;8371;52.272;9.746;2023-02-11T10:15:12;10.00;;;9.27;;
16516;SDS011;8371;52.272;9.746;2023-02-11T10:17:43;8.33;;;7.93;;
16516;SDS011;8371;52.272;9.746;2023-02-11T10:20:24;10.80;;;8.83;;
16516;SDS011;8371;52.272;9.746;2023-02-11T10:22:58;9.37;;;8.57;;
16516;SDS011;8371;52.272;9.746;2023-02-11T10:25:27;8.50;;;7.90;;
16516;SDS011;8371;52.272;9.746;2023-02-11T10:28:09;9.23;;;8.57;;
16516;SDS011;8371;52.272;9.746;2023-02-11T10:30:59;7.53;;;7.07;;
16516;SDS011;8371;52.272;9.746;2023-02-11T10:33:28;10.20;;;9.30;;
16516;SDS011;8371;52.272;9.746;2023-02-11T10:35:57;10.30;;;9.30;;
16516;SDS011;8371;52.272;9.746;2023-02-11T10:38:23;9.50;;;8.83;;
16516;SDS011;8371;52.272;9.746;2023-02-11T10:40:49;8.93;;;8.43;;
16516;SDS011;8371;52.272;9.746;2023-02-11T10:43:16;9.43;;;8.80;;
16516;SDS011;8371;52.272;9.746;2023-02-11T10:45:48;8.60;;;8.17;;
16516;SDS011;8371;52.272;9.746;2023-02-11T10:48:35;8.97;;;8.47;;
16516;SDS011;8371;52.272;9.746;2023-02-11T10:53:42;8.47;;;7.77;;
16516;SDS011;8371;52.272;9.746;2023-02-11T10:56:13;8.73;;;8.27;;
16516;SDS011;8371;52.272;9.746;2023-02-11T10:59:06;8.80;;;8.30;;
16516;SDS011;8371;52.272;9.746;2023-02-11T11:01:45;9.23;;;8.43;;
16516;SDS011;8371;52.272;9.746;2023-02-11T11:09:49;8.00;;;7.53;;
16516;SDS011;8371;52.272;9.746;2023-02-11T11:12:24;8.47;;;7.77;;
16516;SDS011;8371;52.272;9.746;2023-02-11T11:14:55;8.17;;;7.57;;
16516;SDS011;8371;52.272;9.746;2023-02-11T11:17:23;8.37;;;7.87;;
16516;SDS011;8371;52.272;9.746;2023-02-11T11:19:51;7.87;;;7.27;;
16516;SDS011;8371;52.272;9.746;2023-02-11T11:22:20;7.57;;;7.17;;
16516;SDS011;8371;52.272;9.746;2023-02-11T11:24:47;7.87;;;7.37;;
16516;SDS011;8371;52.272;9.746;2023-02-11T11:27:16;8.23;;;7.67;;
16516;SDS011;8371;52.272;9.746;2023-02-11T11:29:50;8.87;;;8.10;;
16516;SDS011;8371;52.272;9.746;2023-02-11T11:32:19;8.63;;;7.93;;
16516;SDS011;8371;52.272;9.746;2023-02-11T11:34:54;8.30;;;7.60;;
16516;SDS011;8371;52.272;9.746;2023-02-11T11:37:27;8.53;;;8.03;;
16516;SDS011;8371;52.272;9.746;2023-02-11T11:39:59;10.17;;;7.80;;
16516;SDS011;8371;52.272;9.746;2023-02-11T11:42:28;8.43;;;7.83;;
16516;SDS011;8371;52.272;9.746;2023-02-11T11:44:57;8.80;;;8.23;;
16516;SDS011;8371;52.272;9.746;2023-02-11T11:50:30;8.97;;;8.27;;
16516;SDS011;8371;52.272;9.746;2023-02-11T11:55:40;8.97;;;8.27;;
16516;SDS011;8371;52.272;9.746;2023-02-11T11:58:16;8.97;;;8.37;;
16516;SDS011;8371;52.272;9.746;2023-02-11T12:00:51;9.77;;;8.87;;
16516;SDS011;8371;52.272;9.746;2023-02-11T12:06:41;8.07;;;7.60;;
16516;SDS011;8371;52.272;9.746;2023-02-11T12:09:21;8.57;;;7.97;;
16516;SDS011;8371;52.272;9.746;2023-02-11T12:11:52;8.63;;;7.93;;
16516;SDS011;8371;52.272;9.746;2023-02-11T12:14:33;8.57;;;8.07;;
16516;SDS011;8371;52.272;9.746;2023-02-11T12:17:07;9.03;;;8.50;;
16516;SDS011;8371;52.272;9.746;2023-02-11T12:19:41;8.87;;;8.37;;
16516;SDS011;8371;52.272;9.746;2023-02-11T12:30:29;8.57;;;8.00;;
16516;SDS011;8371;52.272;9.746;2023-02-11T12:35:39;8.63;;;8.07;;
16516;SDS011;8371;52.272;9.746;2023-02-11T12:38:14;9.13;;;8.53;;
16516;SDS011;8371;52.272;9.746;2023-02-11T12:40:55;9.20;;;8.60;;
16516;SDS011;8371;52.272;9.746;2023-02-11T12:43:38;7.40;;;7.00;;
16516;SDS011;8371;52.272;9.746;2023-02-11T12:46:07;7.83;;;7.33;;
16516;SDS011;8371;52.272;9.746;2023-02-11T12:54:26;9.63;;;8.93;;
16516;SDS011;8371;52.272;9.746;2023-02-11T12:59:32;9.37;;;8.77;;
16516;SDS011;8371;52.272;9.746;2023-02-11T13:02:10;10.07;;;9.17;;
16516;SDS011;8371;52.272;9.746;2023-02-11T13:04:38;9.30;;;8.60;;
16516;SDS011;8371;52.272;9.746;2023-02-11T13:07:11;11.23;;;9.30;;
16516;SDS011;8371;52.272;9.746;2023-02-11T13:09:48;8.97;;;8.43;;
16516;SDS011;8371;52.272;9.746;2023-02-11T13:12:14;9.77;;;8.93;;
16516;SDS011;8371;52.272;9.746;2023-02-11T13:14:52;9.47;;;8.80;;
16516;SDS011;8371;52.272;9.746;2023-02-11T13:17:39;9.33;;;8.83;;
16516;SDS011;8371;52.272;9.746;2023-02-11T13:20:06;9.20;;;8.60;;
16516;SDS011;8371;52.272;9.746;2023-02-11T13:22:47;8.53;;;8.07;;
16516;SDS011;8371;52.272;9.746;2023-02-11T13:25:19;9.57;;;8.80;;
16516;SDS011;8371;52.272;9.746;2023-02-11T13:27:48;8.67;;;8.07;;
16516;SDS011;8371;52.272;9.746;2023-02-11T13:30:27;9.03;;;8.20;;
16516;SDS011;8371;52.272;9.746;2023-02-11T13:37:59;7.63;;;7.27;;
16516;SDS011;8371;52.272;9.746;2023-02-11T13:40:29;8.27;;;7.80;;
16516;SDS011;8371;52.272;9.746;2023-02-11T13:43:03;9.60;;;8.93;;
16516;SDS011;8371;52.272;9.746;2023-02-11T13:48:03;9.60;;;9.00;;
16516;SDS011;8371;52.272;9.746;2023-02-11T13:50:36;9.10;;;8.47;;
16516;SDS011;8371;52.272;9.746;2023-02-11T13:53:06;9.33;;;8.73;;
16516;SDS011;8371;52.272;9.746;2023-02-11T13:55:33;9.43;;;8.87;;
16516;SDS011;8371;52.272;9.746;2023-02-11T13:58:46;8.53;;;8.03;;
16516;SDS011;8371;52.272;9.746;2023-02-11T14:14:24;8.47;;;7.83;;
16516;SDS011;8371;52.272;9.746;2023-02-11T14:19:43;8.37;;;7.77;;
16516;SDS011;8371;52.272;9.746;2023-02-11T14:22:12;9.90;;;9.10;;
16516;SDS011;8371;52.272;9.746;2023-02-11T14:24:50;9.70;;;8.87;;
16516;SDS011;8371;52.272;9.746;2023-02-11T14:27:30;8.83;;;8.20;;
16516;SDS011;8371;52.272;9.746;2023-02-11T14:35:51;8.40;;;7.80;;
16516;SDS011;8371;52.272;9.746;2023-02-11T14:38:47;6.87;;;6.47;;
16516;SDS011;8371;52.272;9.746;2023-02-11T14:41:17;10.20;;;7.33;;
16516;SDS011;8371;52.272;9.746;2023-02-11T14:43:54;7.23;;;6.73;;
16516;SDS011;8371;52.272;9.746;2023-02-11T14:46:23;7.70;;;7.03;;
16516;SDS011;8371;52.272;9.746;2023-02-11T14:48:52;7.43;;;7.03;;
16516;SDS011;8371;52.272;9.746;2023-02-11T14:51:22;7.13;;;6.83;;
16516;SDS011;8371;52.272;9.746;2023-02-11T14:53:54;7.53;;;7.03;;
16516;SDS011;8371;52.272;9.746;2023-02-11T14:56:25;7.63;;;7.03;;
16516;SDS011;8371;52.272;9.746;2023-02-11T14:58:54;7.23;;;6.80;;
16516;SDS011;8371;52.272;9.746;2023-02-11T15:01:24;6.73;;;6.43;;
16516;SDS011;8371;52.272;9.746;2023-02-11T15:04:02;6.87;;;6.57;;
16516;SDS011;8371;52.272;9.746;2023-02-11T15:06:37;7.37;;;6.93;;
16516;SDS011;8371;52.272;9.746;2023-02-11T15:11:40;7.47;;;7.07;;
16516;SDS011;8371;52.272;9.746;2023-02-11T15:14:10;8.27;;;7.67;;
16516;SDS011;8371;52.272;9.746;2023-02-11T15:16:41;8.17;;;7.43;;
16516;SDS011;8371;52.272;9.746;2023-02-11T15:19:43;7.13;;;6.63;;
16516;SDS011;8371;52.272;9.746;2023-02-11T15:21:56;7.77;;;7.37;;
16516;SDS011;8371;52.272;9.746;2023-02-11T15:26:59;8.03;;;7.60;;
16516;SDS011;8371;52.272;9.746;2023-02-11T15:29:27;8.47;;;7.93;;
16516;SDS011;8371;52.272;9.746;2023-02-11T15:32:05;7.83;;;7.40;;
16516;SDS011;8371;52.272;9.746;2023-02-11T15:34:34;7.60;;;7.10;;
16516;SDS011;8371;52.272;9.746;2023-02-11T15:37:01;8.10;;;7.40;;
16516;SDS011;8371;52.272;9.746;2023-02-11T15:39:29;7.73;;;7.23;;
16516;SDS011;8371;52.272;9.746;2023-02-11T15:42:14;7.67;;;7.27;;
16516;SDS011;8371;52.272;9.746;2023-02-11T15:44:42;7.97;;;7.50;;
16516;SDS011;8371;52.272;9.746;2023-02-11T15:47:09;7.70;;;7.30;;
16516;SDS011;8371;52.272;9.746;2023-02-11T15:49:36;7.80;;;7.30;;
16516;SDS011;8371;52.272;9.746;2023-02-11T15:52:05;8.33;;;7.83;;
16516;SDS011;8371;52.272;9.746;2023-02-11T15:54:32;8.03;;;7.50;;
16516;SDS011;8371;52.272;9.746;2023-02-11T15:57:00;9.07;;;7.93;;
16516;SDS011;8371;52.272;9.746;2023-02-11T15:59:29;8.50;;;7.80;;
16516;SDS011;8371;52.272;9.746;2023-02-11T16:02:03;9.97;;;9.27;;
16516;SDS011;8371;52.272;9.746;2023-02-11T16:04:26;8.67;;;7.90;;
16516;SDS011;8371;52.272;9.746;2023-02-11T16:06:53;8.13;;;7.53;;
16516;SDS011;8371;52.272;9.746;2023-02-11T16:09:24;9.07;;;8.47;;
16516;SDS011;8371;52.272;9.746;2023-02-11T16:11:59;8.20;;;7.63;;
16516;SDS011;8371;52.272;9.746;2023-02-11T16:14:32;8.87;;;8.37;;
16516;SDS011;8371;52.272;9.746;2023-02-11T16:17:04;8.73;;;8.13;;
16516;SDS011;8371;52.272;9.746;2023-02-11T16:19:35;9.20;;;8.60;;
16516;SDS011;8371;52.272;9.746;2023-02-11T16:22:14;8.57;;;8.07;;
16516;SDS011;8371;52.272;9.746;2023-02-11T16:24:44;8.97;;;8.47;;
16516;SDS011;8371;52.272;9.746;2023-02-11T16:27:27;9.30;;;8.60;;
16516;SDS011;8371;52.272;9.746;2023-02-11T16:29:56;8.73;;;8.03;;